createdAt,value
2018-05-01T09:41:56.157Z,41.70
2018-05-01T11:25:10.677Z,37.00
2018-05-01T11:27:38.735Z,34.90
2018-05-01T11:30:06.834Z,35.70
2018-05-01T11:32:34.925Z,40.20
2018-05-01T11:35:03.038Z,40.90
2018-05-01T11:37:31.106Z,40.70
2018-05-01T11:39:59.319Z,41.50
2018-05-01T11:42:27.449Z,41.00
2018-05-01T11:44:55.594Z,38.10
2018-05-01T11:47:31.247Z,42.40
2018-05-01T11:49:59.290Z,43.10
2018-05-01T11:52:27.389Z,39.80
2018-05-01T11:54:55.573Z,43.10
2018-05-01T11:57:23.610Z,42.80
2018-05-01T11:59:51.670Z,41.80
2018-05-01T12:02:19.762Z,43.90
2018-05-01T12:04:47.830Z,44.60
2018-05-01T12:07:15.902Z,43.60
2018-05-01T12:09:44.071Z,45.00
2018-05-01T12:12:12.136Z,40.80
2018-05-01T12:14:40.227Z,40.00
2018-05-01T12:17:08.306Z,40.80
2018-05-01T12:19:43.282Z,41.00
2018-05-01T12:22:11.351Z,40.40
2018-05-01T12:24:39.397Z,43.30
2018-05-01T12:27:07.481Z,44.30
2018-05-01T12:29:36.338Z,40.50
2018-05-01T12:32:04.398Z,40.50
2018-05-01T12:34:32.482Z,40.30
2018-05-01T12:37:00.631Z,44.00
2018-05-01T12:39:28.631Z,40.60
2018-05-01T12:41:56.813Z,42.50
2018-05-01T12:44:24.854Z,41.10
2018-05-01T12:46:52.918Z,40.00
2018-05-01T12:49:21.054Z,39.70
2018-05-01T12:51:49.109Z,38.50
2018-05-01T12:54:17.154Z,37.40
2018-05-01T12:56:45.206Z,37.50
2018-05-01T12:59:15.287Z,38.50
2018-05-01T13:01:43.293Z,37.60
2018-05-01T13:04:11.377Z,41.00
2018-05-01T13:06:40.205Z,38.30
2018-05-01T13:09:08.261Z,37.60
2018-05-01T13:11:36.342Z,39.80
2018-05-01T13:14:04.397Z,38.40
2018-05-01T13:16:37.630Z,38.10
2018-05-01T13:19:05.678Z,37.40
2018-05-01T13:21:33.757Z,37.70
2018-05-01T13:24:01.931Z,39.50
2018-05-01T13:26:30.011Z,38.40
2018-05-01T13:28:58.079Z,38.20
2018-05-01T13:31:26.166Z,39.50
2018-05-01T13:33:54.989Z,39.00
2018-05-01T13:36:23.070Z,38.90
2018-05-01T13:38:51.143Z,37.30
2018-05-01T13:41:19.213Z,38.30
2018-05-01T13:43:53.141Z,37.70
2018-05-01T13:46:21.969Z,38.10
2018-05-01T13:49:01.855Z,38.10
2018-05-01T13:51:29.842Z,38.10
2018-05-01T13:54:02.920Z,38.40
2018-05-01T13:56:31.034Z,36.10
2018-05-01T13:58:59.837Z,37.30
2018-05-01T14:01:27.902Z,36.90
2018-05-01T14:04:12.925Z,36.00
2018-05-01T14:06:40.991Z,36.90
2018-05-01T14:09:09.063Z,38.60
2018-05-01T14:11:37.145Z,38.30
2018-05-01T14:14:05.223Z,38.80
2018-05-01T14:16:43.642Z,39.00
2018-05-01T14:19:11.706Z,38.30
2018-05-01T14:21:40.853Z,36.80
2018-05-01T14:24:09.719Z,38.10
2018-05-01T14:26:37.773Z,38.00
2018-05-01T14:29:08.746Z,36.70
2018-05-01T14:31:40.837Z,37.20
2018-05-01T14:34:09.824Z,37.80
2018-05-01T14:36:45.611Z,35.80
2018-05-01T14:39:13.714Z,36.40
2018-05-01T14:41:43.538Z,35.80
2018-05-01T14:44:11.617Z,35.80
2018-05-01T14:46:39.713Z,37.10
2018-05-01T14:49:09.639Z,36.10
2018-05-01T14:51:37.742Z,36.10
2018-05-01T14:54:05.791Z,37.40
2018-05-01T14:56:42.739Z,38.10
2018-05-01T14:59:10.804Z,35.90
2018-05-01T15:01:38.956Z,36.00
2018-05-01T15:04:20.829Z,37.90
2018-05-01T15:06:48.958Z,37.70
2018-05-01T15:09:17.029Z,38.10
2018-05-01T15:11:45.209Z,36.10
2018-05-01T15:14:13.288Z,37.00
2018-05-01T15:16:42.094Z,37.60
2018-05-01T15:19:10.146Z,37.60
2018-05-01T15:21:38.972Z,37.60
2018-05-01T15:24:07.065Z,37.60
2018-05-01T15:26:35.139Z,36.70
2018-05-01T15:29:08.033Z,37.90
2018-05-01T15:31:36.106Z,39.50
2018-05-01T15:34:04.154Z,37.60
2018-05-01T15:36:38.914Z,38.60
2018-05-01T15:39:06.993Z,38.50
2018-05-01T15:41:35.066Z,37.10
2018-05-01T15:44:03.133Z,34.40
2018-05-01T15:46:31.202Z,33.60
2018-05-01T15:48:59.273Z,33.40
2018-05-01T15:51:27.369Z,32.60
2018-05-01T15:53:56.199Z,34.90
2018-05-01T15:56:24.257Z,34.90
2018-05-01T15:58:52.329Z,36.20
2018-05-01T16:01:20.416Z,37.90
2018-05-01T16:03:51.406Z,40.20
2018-05-01T16:06:19.557Z,36.50
2018-05-01T16:08:48.397Z,30.30
2018-05-01T16:11:16.490Z,30.30
2018-05-01T16:13:44.557Z,26.60
2018-05-01T16:16:12.582Z,29.70
2018-05-01T16:18:40.666Z,29.00
2018-05-01T16:21:09.536Z,31.80
2018-05-01T16:23:37.583Z,31.80
2018-05-01T16:26:09.581Z,33.70
2018-05-01T16:28:37.629Z,33.60
2018-05-01T16:31:05.706Z,34.90
2018-05-01T16:33:33.789Z,34.20
2018-05-01T16:36:01.944Z,36.80
2018-05-01T16:38:29.939Z,35.90
2018-05-01T16:40:58.011Z,33.20
2018-05-01T16:43:26.025Z,32.30
2018-05-01T16:45:54.079Z,29.20
2018-05-01T16:48:22.942Z,28.20
2018-05-01T16:50:51.006Z,28.10
2018-05-01T16:53:19.077Z,26.60
2018-05-01T16:55:47.155Z,25.10
2018-05-01T16:58:15.193Z,24.80
2018-05-01T17:00:43.274Z,27.20
2018-05-01T17:03:11.371Z,27.10
2018-05-01T17:05:39.438Z,26.60
2018-05-01T17:08:07.505Z,26.80
2018-05-01T17:10:35.589Z,28.60
2018-05-01T17:13:07.554Z,26.80
2018-05-01T17:15:35.634Z,26.70
2018-05-01T17:18:03.694Z,27.10
2018-05-01T17:20:31.757Z,26.70
2018-05-01T17:22:59.837Z,28.70
2018-05-01T17:25:27.912Z,28.20
2018-05-01T17:27:55.958Z,26.40
2018-05-01T17:30:24.038Z,26.60
2018-05-01T17:32:52.082Z,26.60
2018-05-01T17:35:20.153Z,28.10
2018-05-01T17:37:48.257Z,28.20
2018-05-01T17:40:16.322Z,27.70
2018-05-01T17:42:44.406Z,27.20
2018-05-01T17:45:12.478Z,27.50
2018-05-01T17:47:40.551Z,28.40
2018-05-01T17:50:08.599Z,28.70
2018-05-01T17:52:36.673Z,28.50
2018-05-01T17:55:04.753Z,28.30
2018-05-01T17:57:32.912Z,28.50
2018-05-01T18:00:00.893Z,29.10
2018-05-01T18:02:28.948Z,29.60
2018-05-01T18:04:57.013Z,30.70
2018-05-01T18:07:25.083Z,29.90
2018-05-01T18:09:53.146Z,31.00
2018-05-01T18:12:21.950Z,31.50
2018-05-01T18:14:50.015Z,31.50
2018-05-01T18:17:18.054Z,30.80
2018-05-01T18:19:46.113Z,31.90
2018-05-01T18:22:14.182Z,32.10
2018-05-01T18:24:42.257Z,32.30
2018-05-01T18:27:10.326Z,32.10
2018-05-01T18:29:38.508Z,32.20
2018-05-01T18:32:06.587Z,32.80
2018-05-01T18:34:34.651Z,33.30
2018-05-01T18:37:02.830Z,34.10
2018-05-01T18:39:30.902Z,38.60
2018-05-01T18:41:58.965Z,41.10
2018-05-01T18:44:27.037Z,42.80
2018-05-01T18:46:55.093Z,43.70
2018-05-01T18:49:23.165Z,45.10
2018-05-01T18:51:51.362Z,44.90
2018-05-01T18:54:19.443Z,45.60
2018-05-01T18:56:47.513Z,46.30
2018-05-01T18:59:15.592Z,47.60
2018-05-01T19:01:43.657Z,47.80
2018-05-01T19:04:11.707Z,48.20
2018-05-01T19:06:39.766Z,48.30
2018-05-01T19:09:07.826Z,49.30
2018-05-01T19:11:35.893Z,49.20
2018-05-01T19:14:03.982Z,50.00
2018-05-01T19:16:32.033Z,50.30
2018-05-01T19:19:00.093Z,50.80
2018-05-01T19:21:28.192Z,51.20
2018-05-01T19:23:56.245Z,51.70
2018-05-01T19:26:24.301Z,51.90
2018-05-01T19:28:53.297Z,52.30
2018-05-01T19:31:22.101Z,52.30
2018-05-01T19:33:50.174Z,53.00
2018-05-01T19:36:18.275Z,52.10
2018-05-01T19:38:46.342Z,52.60
2018-05-01T19:41:14.418Z,52.60
2018-05-01T19:43:42.502Z,53.30
2018-05-01T19:46:10.590Z,53.50
2018-05-01T19:48:38.709Z,54.30
2018-05-01T19:51:06.773Z,54.90
2018-05-01T19:53:34.785Z,54.20
2018-05-01T19:56:02.861Z,53.90
2018-05-01T19:58:30.909Z,53.70
2018-05-01T20:01:00.178Z,53.80
2018-05-01T20:03:28.327Z,54.10
2018-05-01T20:05:56.338Z,54.70
2018-05-01T20:08:24.398Z,55.60
2018-05-01T20:10:52.475Z,56.00
2018-05-01T20:13:20.558Z,56.50
2018-05-01T20:15:48.602Z,55.70
2018-05-01T20:18:16.671Z,56.20
2018-05-01T20:20:44.742Z,56.70
2018-05-01T20:23:12.802Z,56.90
2018-05-01T20:25:40.866Z,56.20
2018-05-01T20:28:08.937Z,56.90
2018-05-01T20:30:38.246Z,55.80
2018-05-01T20:33:06.309Z,56.00
2018-05-01T20:35:34.386Z,56.10
2018-05-01T20:38:02.438Z,57.80
2018-05-01T20:40:30.477Z,58.00
2018-05-01T20:42:58.530Z,58.80
2018-05-01T20:45:27.357Z,58.80
2018-05-01T20:47:55.410Z,58.80
2018-05-01T20:50:23.491Z,58.70
2018-05-01T20:52:51.534Z,58.60
2018-05-01T20:55:20.377Z,59.20
2018-05-01T20:57:49.201Z,59.50
2018-05-01T21:00:17.249Z,59.40
2018-05-01T21:02:45.282Z,59.50
2018-05-01T21:05:13.347Z,58.90
2018-05-01T21:07:41.390Z,59.30
2018-05-01T21:10:09.482Z,58.90
2018-05-01T21:12:38.326Z,59.70
2018-05-01T21:15:06.397Z,59.60
2018-05-01T21:17:34.466Z,60.00
2018-05-01T21:20:02.537Z,60.40
2018-05-01T21:22:30.578Z,60.50
2018-05-01T21:24:58.631Z,60.70
2018-05-01T21:27:27.448Z,60.80
2018-05-01T21:29:55.514Z,60.80
2018-05-01T21:32:23.621Z,60.70
2018-05-01T21:34:51.677Z,60.70
2018-05-01T21:37:19.769Z,60.30
2018-05-01T21:39:47.822Z,59.90
2018-05-01T21:42:15.989Z,60.50
2018-05-01T21:44:44.051Z,61.20
2018-05-01T21:47:13.094Z,61.80
2018-05-01T21:49:41.286Z,62.00
2018-05-01T21:52:09.342Z,61.90
2018-05-01T21:54:37.402Z,62.10
2018-05-01T21:57:05.503Z,62.20
2018-05-01T21:59:33.570Z,62.30
2018-05-01T22:02:01.625Z,62.10
2018-05-01T22:04:29.690Z,62.20
2018-05-01T22:06:57.758Z,62.40
2018-05-01T22:09:25.815Z,62.70
2018-05-01T22:11:53.881Z,62.70
2018-05-01T22:14:21.982Z,62.70
2018-05-01T22:16:50.036Z,63.00
2018-05-01T22:19:18.118Z,62.90
2018-05-01T22:21:46.303Z,63.80
2018-05-01T22:24:14.382Z,64.20
2018-05-01T22:26:42.430Z,64.20
2018-05-01T22:29:10.499Z,63.60
2018-05-01T22:31:38.556Z,64.70
2018-05-01T22:34:06.590Z,64.20
2018-05-01T22:36:34.649Z,64.10
2018-05-01T22:39:02.725Z,64.50
2018-05-01T22:41:30.803Z,64.60
2018-05-01T22:43:58.879Z,64.40
2018-05-01T22:46:26.969Z,64.50
2018-05-01T22:48:55.026Z,64.70
2018-05-01T22:51:23.089Z,64.60
2018-05-01T22:53:51.150Z,65.00
2018-05-01T22:56:19.183Z,65.20
2018-05-01T22:58:47.233Z,64.70
2018-05-01T23:01:15.303Z,65.00
2018-05-01T23:03:43.338Z,65.20
2018-05-01T23:06:11.426Z,65.40
2018-05-01T23:08:39.457Z,65.80
2018-05-01T23:11:07.499Z,65.70
2018-05-01T23:13:35.610Z,65.70
2018-05-01T23:16:03.678Z,65.70
2018-05-01T23:18:31.718Z,65.60
2018-05-01T23:20:59.773Z,65.40
2018-05-01T23:23:27.849Z,65.50
2018-05-01T23:25:55.914Z,65.80
2018-05-01T23:28:23.990Z,65.60
2018-05-01T23:30:52.045Z,65.70
2018-05-01T23:33:20.875Z,65.70
2018-05-01T23:35:48.946Z,65.70
2018-05-01T23:38:17.038Z,65.80
2018-05-01T23:40:45.105Z,66.00
2018-05-01T23:43:13.170Z,66.00
2018-05-01T23:45:41.228Z,66.00
2018-05-01T23:48:09.282Z,66.30
2018-05-01T23:50:37.342Z,66.40
2018-05-01T23:53:06.177Z,66.60
2018-05-01T23:55:34.229Z,66.60
2018-05-01T23:58:02.302Z,66.90
